createdAt,value
2023-11-01T00:00:07.057Z,100.00
2023-11-01T00:02:42.077Z,100.00
2023-11-01T00:05:12.599Z,100.00
2023-11-01T00:07:41.911Z,100.00
2023-11-01T00:10:11.244Z,100.00
2023-11-01T00:12:40.370Z,100.00
2023-11-01T00:15:11.245Z,100.00
2023-11-01T00:17:40.836Z,100.00
2023-11-01T00:20:10.787Z,100.00
2023-11-01T00:22:39.523Z,100.00
2023-11-01T00:25:09.803Z,100.00
2023-11-01T00:27:39.287Z,100.00
2023-11-01T00:30:09.662Z,100.00
2023-11-01T00:32:40.392Z,100.00
2023-11-01T00:35:09.662Z,100.00
2023-11-01T00:37:38.657Z,100.00
2023-11-01T00:40:08.937Z,100.00
2023-11-01T00:42:38.242Z,100.00
2023-11-01T00:45:08.118Z,100.00
2023-11-01T00:47:37.063Z,100.00
2023-11-01T00:50:07.402Z,100.00
2023-11-01T00:52:36.462Z,100.00
2023-11-01T00:55:06.222Z,100.00
2023-11-01T00:57:35.192Z,100.00
2023-11-01T01:00:06.706Z,100.00
2023-11-01T01:02:36.519Z,100.00
2023-11-01T01:05:07.969Z,100.00
2023-11-01T01:07:40.268Z,100.00
2023-11-01T01:10:12.671Z,100.00
2023-11-01T01:12:41.830Z,100.00
2023-11-01T01:15:11.672Z,100.00
2023-11-01T01:17:40.922Z,100.00
2023-11-01T01:20:11.771Z,100.00
2023-11-01T01:22:41.150Z,100.00
2023-11-01T01:25:10.112Z,100.00
2023-11-01T01:27:41.955Z,100.00
2023-11-01T01:30:12.559Z,100.00
2023-11-01T01:32:41.754Z,100.00
2023-11-01T01:35:14.025Z,100.00
2023-11-01T01:37:43.166Z,100.00
2023-11-01T01:40:13.001Z,100.00
2023-11-01T01:42:42.497Z,100.00
2023-11-01T01:45:11.830Z,100.00
2023-11-01T01:47:40.737Z,100.00
2023-11-01T01:50:10.655Z,100.00
2023-11-01T01:52:40.499Z,100.00
2023-11-01T01:55:11.605Z,100.00
2023-11-01T01:57:42.207Z,100.00
2023-11-01T02:00:12.921Z,100.00
2023-11-01T02:02:43.158Z,100.00
2023-11-01T02:05:12.069Z,100.00
2023-11-01T02:07:40.516Z,100.00
2023-11-01T02:10:12.307Z,100.00
2023-11-01T02:12:42.105Z,100.00
2023-11-01T02:15:11.237Z,100.00
2023-11-01T02:17:40.400Z,100.00
2023-11-01T02:20:10.089Z,100.00
2023-11-01T02:22:39.608Z,100.00
2023-11-01T02:25:08.924Z,100.00
2023-11-01T02:27:37.904Z,100.00
2023-11-01T02:30:08.183Z,100.00
2023-11-01T02:32:36.994Z,100.00
2023-11-01T02:35:07.197Z,100.00
2023-11-01T02:37:36.146Z,100.00
2023-11-01T02:40:06.962Z,100.00
2023-11-01T02:42:35.903Z,100.00
2023-11-01T02:45:05.378Z,100.00
2023-11-01T02:47:34.635Z,100.00
2023-11-01T02:50:08.720Z,100.00
2023-11-01T02:52:41.404Z,100.00
2023-11-01T02:55:11.346Z,100.00
2023-11-01T02:57:40.320Z,100.00
2023-11-01T03:00:12.244Z,100.00
2023-11-01T03:02:41.408Z,100.00
2023-11-01T03:05:10.794Z,100.00
2023-11-01T03:07:40.999Z,100.00
2023-11-01T03:10:11.781Z,100.00
2023-11-01T03:12:41.034Z,100.00
2023-11-01T03:15:10.751Z,100.00
2023-11-01T03:17:39.887Z,100.00
2023-11-01T03:20:09.457Z,100.00
2023-11-01T03:22:38.243Z,100.00
2023-11-01T03:25:09.438Z,100.00
2023-11-01T03:27:38.710Z,100.00
2023-11-01T03:30:10.663Z,100.00
2023-11-01T03:32:39.618Z,100.00
2023-11-01T03:35:09.345Z,100.00
2023-11-01T03:37:38.451Z,100.00
2023-11-01T03:40:09.351Z,100.00
2023-11-01T03:42:38.990Z,100.00
2023-11-01T03:45:09.903Z,100.00
2023-11-01T03:47:40.115Z,100.00
2023-11-01T03:50:10.050Z,100.00
2023-11-01T03:52:38.958Z,100.00
2023-11-01T03:55:10.502Z,100.00
2023-11-01T03:57:39.800Z,100.00
2023-11-01T04:00:10.580Z,100.00
2023-11-01T04:02:40.925Z,100.00
2023-11-01T04:05:10.276Z,100.00
2023-11-01T04:07:40.083Z,100.00
2023-11-01T04:10:11.011Z,100.00
2023-11-01T04:12:39.508Z,100.00
2023-11-01T04:15:11.956Z,100.00
2023-11-01T04:17:40.866Z,100.00
2023-11-01T04:20:10.711Z,100.00
2023-11-01T04:22:40.025Z,100.00
2023-11-01T04:25:11.896Z,100.00
2023-11-01T04:27:41.725Z,100.00
2023-11-01T04:30:11.891Z,100.00
2023-11-01T04:32:41.769Z,100.00
2023-11-01T04:35:12.151Z,100.00
2023-11-01T04:37:40.734Z,99.98
2023-11-01T04:40:14.256Z,99.92
2023-11-01T04:42:45.358Z,99.74
2023-11-01T04:45:13.964Z,99.60
2023-11-01T04:47:44.795Z,99.49
2023-11-01T04:50:16.352Z,99.37
2023-11-01T04:52:45.162Z,99.28
2023-11-01T04:55:14.866Z,99.11
2023-11-01T04:57:44.120Z,99.00
2023-11-01T05:00:17.916Z,98.91
2023-11-01T05:02:47.226Z,98.81
2023-11-01T05:05:16.137Z,98.70
2023-11-01T05:07:45.357Z,98.59
2023-11-01T05:10:14.429Z,98.50
2023-11-01T05:12:43.357Z,98.25
2023-11-01T05:15:12.224Z,98.19
2023-11-01T05:17:41.395Z,98.14
2023-11-01T05:20:12.307Z,98.04
2023-11-01T05:22:42.721Z,97.99
2023-11-01T05:25:13.632Z,97.87
2023-11-01T05:27:43.905Z,97.77
2023-11-01T05:30:16.413Z,97.71
2023-11-01T05:32:46.967Z,97.53
2023-11-01T05:35:16.381Z,97.41
2023-11-01T05:37:45.620Z,97.31
2023-11-01T05:40:14.919Z,97.27
2023-11-01T05:42:45.201Z,97.20
2023-11-01T05:45:17.858Z,97.08
2023-11-01T05:47:51.242Z,96.91
2023-11-01T05:50:27.160Z,96.69
2023-11-01T05:52:58.087Z,96.42
2023-11-01T05:55:37.941Z,96.39
2023-11-01T05:57:58.943Z,96.10
2023-11-01T06:00:27.980Z,95.99
2023-11-01T06:02:57.719Z,95.87
2023-11-01T06:05:28.607Z,95.75
2023-11-01T06:07:57.607Z,95.55
2023-11-01T06:10:26.433Z,95.51
2023-11-01T06:12:56.083Z,95.49
2023-11-01T06:15:25.442Z,95.41
2023-11-01T06:17:54.291Z,95.22
2023-11-01T06:20:23.537Z,95.01
2023-11-01T06:22:52.422Z,94.68
2023-11-01T06:25:21.455Z,94.37
2023-11-01T06:27:50.671Z,94.30
2023-11-01T06:30:19.906Z,93.99
2023-11-01T06:32:48.990Z,93.73
2023-11-01T06:35:18.074Z,93.45
2023-11-01T06:37:49.640Z,93.18
2023-11-01T06:40:18.636Z,92.86
2023-11-01T06:42:47.501Z,92.50
2023-11-01T06:45:16.600Z,92.35
2023-11-01T06:47:45.405Z,92.25
2023-11-01T06:50:14.608Z,91.96
2023-11-01T06:52:45.261Z,91.64
2023-11-01T06:55:14.451Z,91.41
2023-11-01T06:57:43.727Z,91.26
2023-11-01T07:00:14.980Z,91.11
2023-11-01T07:02:44.538Z,90.78
2023-11-01T07:05:13.526Z,90.43
2023-11-01T07:07:42.623Z,90.28
2023-11-01T07:10:12.120Z,90.22
2023-11-01T07:12:41.660Z,90.29
2023-11-01T07:15:12.420Z,90.25
2023-11-01T07:17:43.058Z,90.23
2023-11-01T07:20:13.520Z,90.06
2023-11-01T07:22:42.708Z,89.93
2023-11-01T07:25:12.097Z,89.84
2023-11-01T07:27:41.083Z,89.63
2023-11-01T07:30:10.747Z,89.42
2023-11-01T07:32:39.739Z,89.37
2023-11-01T07:35:09.293Z,89.38
2023-11-01T07:37:39.209Z,89.25
2023-11-01T07:40:10.911Z,89.04
2023-11-01T07:42:41.412Z,88.90
2023-11-01T07:45:11.629Z,88.75
2023-11-01T07:47:42.410Z,88.56
2023-11-01T07:50:13.661Z,88.29
2023-11-01T07:52:44.267Z,88.29
2023-11-01T07:55:13.757Z,88.13
2023-11-01T07:57:42.851Z,87.64
2023-11-01T08:00:14.278Z,87.57
2023-11-01T08:02:43.185Z,87.40
2023-11-01T08:05:12.802Z,87.19
2023-11-01T08:07:42.515Z,86.70
2023-11-01T08:10:12.223Z,86.06
2023-11-01T08:12:41.685Z,85.65
2023-11-01T08:15:12.827Z,84.63
2023-11-01T08:17:41.804Z,84.03
2023-11-01T08:20:16.272Z,83.60
2023-11-01T08:22:45.187Z,83.30
2023-11-01T08:25:14.081Z,83.13
2023-11-01T08:27:44.420Z,82.85
2023-11-01T08:30:13.965Z,82.36
2023-11-01T08:32:42.841Z,82.47
2023-11-01T08:35:11.847Z,82.26
2023-11-01T08:37:40.884Z,82.14
2023-11-01T08:40:11.559Z,82.12
2023-11-01T08:42:40.534Z,82.25
2023-11-01T08:45:10.662Z,82.29
2023-11-01T08:47:45.570Z,82.45
2023-11-01T08:50:15.941Z,82.59
2023-11-01T08:52:45.333Z,82.95
2023-11-01T08:55:15.446Z,83.51
2023-11-01T08:57:46.909Z,83.79
2023-11-01T09:00:21.569Z,84.25
2023-11-01T09:02:50.230Z,84.60
2023-11-01T09:05:19.926Z,84.68
2023-11-01T09:07:51.441Z,84.50
2023-11-01T09:10:19.962Z,84.48
2023-11-01T09:12:48.961Z,84.74
2023-11-01T09:15:17.792Z,85.04
2023-11-01T09:17:46.548Z,85.44
2023-11-01T09:20:16.129Z,85.93
2023-11-01T09:22:46.546Z,86.36
2023-11-01T09:25:16.186Z,87.06
2023-11-01T09:27:45.166Z,87.60
2023-11-01T09:30:16.403Z,88.06
2023-11-01T09:32:45.575Z,88.55
2023-11-01T09:35:16.177Z,88.91
2023-11-01T09:37:45.569Z,89.44
2023-11-01T09:40:14.680Z,89.83
2023-11-01T09:42:44.617Z,90.15
2023-11-01T09:45:13.929Z,90.60
2023-11-01T09:47:43.512Z,91.35
2023-11-01T09:50:14.222Z,91.91
2023-11-01T09:52:44.757Z,92.68
2023-11-01T09:55:16.872Z,93.34
2023-11-01T09:57:46.582Z,93.77
2023-11-01T10:00:16.546Z,94.28
2023-11-01T10:02:45.566Z,94.79
2023-11-01T10:05:15.050Z,95.06
2023-11-01T10:07:44.330Z,95.28
2023-11-01T10:10:19.005Z,95.58
2023-11-01T10:12:48.297Z,96.02
2023-11-01T10:15:22.718Z,96.25
2023-11-01T10:17:53.290Z,96.15
2023-11-01T10:20:28.210Z,96.68
2023-11-01T10:22:58.989Z,96.86
2023-11-01T10:25:29.955Z,97.01
2023-11-01T10:27:59.530Z,97.29
2023-11-01T10:30:28.982Z,97.67
2023-11-01T10:32:59.718Z,97.81
2023-11-01T10:35:30.537Z,97.90
2023-11-01T10:38:01.488Z,97.80
2023-11-01T10:40:31.272Z,97.67
2023-11-01T10:43:06.527Z,97.94
2023-11-01T10:45:36.199Z,97.93
2023-11-01T10:48:07.069Z,98.01
2023-11-01T10:50:36.237Z,98.17
2023-11-01T10:53:05.435Z,98.15
2023-11-01T10:55:34.491Z,98.35
2023-11-01T10:58:03.892Z,98.27
2023-11-01T11:00:47.879Z,98.28
2023-11-01T11:04:08.516Z,98.27
2023-11-01T11:06:45.748Z,98.21
2023-11-01T11:09:24.099Z,98.48
2023-11-01T11:12:22.294Z,98.71
2023-11-01T11:14:52.252Z,98.81
2023-11-01T11:17:25.121Z,99.01
2023-11-01T11:20:13.814Z,99.11
2023-11-01T11:23:10.024Z,99.11
2023-11-01T11:25:45.935Z,99.23
2023-11-01T11:28:40.552Z,99.46
2023-11-01T11:31:18.927Z,99.43
2023-11-01T11:33:53.373Z,99.72
2023-11-01T11:36:25.884Z,99.77
2023-11-01T11:38:59.978Z,99.61
2023-11-01T11:41:32.144Z,99.71
2023-11-01T11:44:14.242Z,99.67
2023-11-01T11:46:46.401Z,99.69
2023-11-01T11:49:24.991Z,99.77
2023-11-01T11:52:04.787Z,99.80
2023-11-01T11:54:38.549Z,99.89
2023-11-01T11:57:12.045Z,99.98
2023-11-01T11:59:43.282Z,100.00
2023-11-01T12:02:13.554Z,100.00
2023-11-01T12:04:44.303Z,100.00
2023-11-01T12:07:19.857Z,100.00
2023-11-01T12:09:50.169Z,100.00
2023-11-01T12:12:19.523Z,100.00
2023-11-01T12:14:58.442Z,100.00
2023-11-01T12:17:28.517Z,100.00
2023-11-01T12:19:57.517Z,100.00
2023-11-01T12:22:26.619Z,100.00
2023-11-01T12:24:56.945Z,100.00
2023-11-01T12:27:32.854Z,100.00
2023-11-01T12:30:03.694Z,100.00
2023-11-01T12:32:35.697Z,100.00
2023-11-01T12:35:06.664Z,100.00
2023-11-01T12:37:37.054Z,100.00
2023-11-01T12:40:15.231Z,100.00
2023-11-01T12:42:51.461Z,100.00
2023-11-01T12:45:21.857Z,100.00
2023-11-01T12:47:56.985Z,100.00
2023-11-01T12:50:34.190Z,100.00
2023-11-01T12:53:03.082Z,98.11
2023-11-01T12:55:32.861Z,96.75
2023-11-01T12:58:02.977Z,95.48
2023-11-01T13:00:33.158Z,95.72
2023-11-01T13:03:03.323Z,96.00
2023-11-01T13:05:32.733Z,96.26
2023-11-01T13:08:03.022Z,96.25
2023-11-01T13:10:32.444Z,96.44
2023-11-01T13:13:03.196Z,96.54
2023-11-01T13:15:33.174Z,96.78
2023-11-01T13:18:02.364Z,96.90
2023-11-01T13:20:31.452Z,97.19
2023-11-01T13:23:00.548Z,97.65
2023-11-01T13:25:30.403Z,98.05
2023-11-01T13:27:59.301Z,98.31
2023-11-01T13:30:28.693Z,98.33
2023-11-01T13:32:57.847Z,98.47
2023-11-01T13:35:26.784Z,98.88
2023-11-01T13:37:56.305Z,98.64
2023-11-01T13:40:25.890Z,98.72
2023-11-01T13:42:57.777Z,98.72
2023-11-01T13:45:28.351Z,98.84
2023-11-01T13:47:57.848Z,99.03
2023-11-01T13:50:27.531Z,99.25
2023-11-01T13:52:56.910Z,99.27
2023-11-01T13:55:31.243Z,99.23
2023-11-01T13:57:59.080Z,99.34
2023-11-01T14:00:28.535Z,99.41
2023-11-01T14:03:01.027Z,99.12
2023-11-01T14:05:31.586Z,99.15
2023-11-01T14:08:00.819Z,99.09
2023-11-01T14:10:31.898Z,99.24
2023-11-01T14:13:03.971Z,99.52
2023-11-01T14:15:34.559Z,99.39
2023-11-01T14:18:05.756Z,99.46
2023-11-01T14:20:36.574Z,99.62
2023-11-01T14:23:06.548Z,99.75
2023-11-01T14:25:36.102Z,99.96
2023-11-01T14:28:06.584Z,100.00
2023-11-01T14:30:35.895Z,100.00
2023-11-01T14:33:07.127Z,100.00
2023-11-01T14:35:37.303Z,100.00
2023-11-01T14:38:06.866Z,100.00
2023-11-01T14:40:35.822Z,100.00
2023-11-01T14:43:05.227Z,100.00
2023-11-01T14:45:35.118Z,100.00
2023-11-01T14:48:09.398Z,100.00
2023-11-01T14:50:38.621Z,100.00
2023-11-01T14:53:08.947Z,100.00
2023-11-01T14:55:38.139Z,100.00
2023-11-01T14:58:08.581Z,100.00
2023-11-01T15:00:37.779Z,100.00
2023-11-01T15:03:06.975Z,100.00
2023-11-01T15:05:36.392Z,99.74
2023-11-01T15:08:06.015Z,99.71
2023-11-01T15:10:35.125Z,99.77
2023-11-01T15:13:05.022Z,99.64
2023-11-01T15:15:33.813Z,99.56
2023-11-01T15:18:02.870Z,99.66
2023-11-01T15:20:32.507Z,99.73
2023-11-01T15:23:01.769Z,99.68
2023-11-01T15:25:31.133Z,99.69
2023-11-01T15:27:59.893Z,99.78
2023-11-01T15:30:30.486Z,99.77
2023-11-01T15:32:59.898Z,99.98
2023-11-01T15:35:29.781Z,100.00
2023-11-01T15:37:59.132Z,100.00
2023-11-01T15:40:28.675Z,99.97
2023-11-01T15:42:57.663Z,99.54
2023-11-01T15:45:26.509Z,99.49
2023-11-01T15:47:55.763Z,99.43
2023-11-01T15:50:24.976Z,99.17
2023-11-01T15:52:54.439Z,99.21
2023-11-01T15:55:24.074Z,99.10
2023-11-01T15:57:52.886Z,98.32
2023-11-01T16:00:22.153Z,97.64
2023-11-01T16:02:51.423Z,96.91
2023-11-01T16:05:21.035Z,96.34
2023-11-01T16:07:51.782Z,95.83
2023-11-01T16:10:20.481Z,95.08
2023-11-01T16:12:49.694Z,94.54
2023-11-01T16:15:18.729Z,93.94
2023-11-01T16:17:47.784Z,93.10
2023-11-01T16:20:20.685Z,92.49
2023-11-01T16:22:50.319Z,92.05
2023-11-01T16:25:20.332Z,91.41
2023-11-01T16:27:50.052Z,91.03
2023-11-01T16:30:19.743Z,91.00
2023-11-01T16:32:56.129Z,90.23
2023-11-01T16:35:24.357Z,88.60
2023-11-01T16:37:54.161Z,87.14
2023-11-01T16:40:23.113Z,86.68
2023-11-01T16:42:53.240Z,86.20
2023-11-01T16:45:23.650Z,85.88
2023-11-01T16:47:54.550Z,85.47
2023-11-01T16:50:24.688Z,84.70
2023-11-01T16:52:54.902Z,84.45
2023-11-01T16:55:23.910Z,84.26
2023-11-01T16:57:53.112Z,84.12
2023-11-01T17:00:22.070Z,84.03
2023-11-01T17:02:51.346Z,84.00
2023-11-01T17:05:20.798Z,83.09
2023-11-01T17:07:49.584Z,81.82
2023-11-01T17:10:18.452Z,81.99
2023-11-01T17:12:48.305Z,82.21
2023-11-01T17:15:24.073Z,81.89
2023-11-01T17:17:56.975Z,81.07
2023-11-01T17:20:26.024Z,80.92
2023-11-01T17:22:58.150Z,81.04
2023-11-01T17:25:50.662Z,81.35
2023-11-01T17:28:34.602Z,81.21
2023-11-01T17:31:07.998Z,80.51
2023-11-01T17:33:40.614Z,80.49
2023-11-01T17:36:27.028Z,80.62
2023-11-01T17:39:02.103Z,80.84
2023-11-01T17:41:53.997Z,80.78
2023-11-01T17:44:25.213Z,80.71
2023-11-01T17:47:02.396Z,80.59
2023-11-01T17:49:52.268Z,80.71
2023-11-01T17:52:36.890Z,80.86
2023-11-01T17:55:13.613Z,80.99
2023-11-01T17:57:45.590Z,80.65
2023-11-01T18:00:16.131Z,80.55
2023-11-01T18:03:09.525Z,80.49
2023-11-01T18:05:40.622Z,80.65
2023-11-01T18:08:14.630Z,80.63
2023-11-01T18:10:50.751Z,80.45
2023-11-01T18:13:32.036Z,80.21
2023-11-01T18:16:03.509Z,80.32
2023-11-01T18:18:51.413Z,80.17
2023-11-01T18:21:31.134Z,80.23
2023-11-01T18:24:02.571Z,80.61
2023-11-01T18:26:32.993Z,80.71
2023-11-01T18:29:05.970Z,80.60
2023-11-01T18:31:44.440Z,80.55
2023-11-01T18:34:14.253Z,80.80
2023-11-01T18:36:47.474Z,81.09
2023-11-01T18:39:22.715Z,81.42
2023-11-01T18:41:56.007Z,81.46
2023-11-01T18:44:40.402Z,81.71
2023-11-01T18:47:09.502Z,81.59
2023-11-01T18:50:07.887Z,80.97
2023-11-01T18:52:39.101Z,81.08
2023-11-01T18:55:11.110Z,80.98
2023-11-01T18:57:42.256Z,81.02
2023-11-01T19:00:14.025Z,80.99
2023-11-01T19:03:07.649Z,80.75
2023-11-01T19:05:38.983Z,80.43
2023-11-01T19:08:08.025Z,80.29
2023-11-01T19:10:37.849Z,80.23
2023-11-01T19:13:07.841Z,80.31
2023-11-01T19:15:42.330Z,79.96
2023-11-01T19:18:15.919Z,79.83
2023-11-01T19:20:46.704Z,79.43
2023-11-01T19:23:16.922Z,79.11
2023-11-01T19:25:46.552Z,78.78
2023-11-01T19:28:17.667Z,78.45
2023-11-01T19:30:48.332Z,77.75
2023-11-01T19:33:26.352Z,77.88
2023-11-01T19:35:54.083Z,77.72
2023-11-01T19:38:23.430Z,77.36
2023-11-01T19:40:53.084Z,77.24
2023-11-01T19:43:25.966Z,76.89
2023-11-01T19:45:56.079Z,76.98
2023-11-01T19:48:29.186Z,76.58
2023-11-01T19:50:59.926Z,76.59
2023-11-01T19:53:28.831Z,76.66
2023-11-01T19:55:57.931Z,76.50
2023-11-01T19:58:27.431Z,76.35
2023-11-01T20:00:56.541Z,76.30
2023-11-01T20:03:25.900Z,76.21
2023-11-01T20:05:55.010Z,76.35
2023-11-01T20:08:25.355Z,76.24
2023-11-01T20:10:54.292Z,76.28
2023-11-01T20:13:23.686Z,76.50
2023-11-01T20:15:52.791Z,76.23
2023-11-01T20:18:23.431Z,76.14
2023-11-01T20:20:52.371Z,75.69
2023-11-01T20:23:21.775Z,75.41
2023-11-01T20:25:50.708Z,75.19
2023-11-01T20:28:21.627Z,75.30
2023-11-01T20:30:52.782Z,75.12
2023-11-01T20:33:21.708Z,74.54
2023-11-01T20:35:50.622Z,74.55
2023-11-01T20:38:21.489Z,74.36
2023-11-01T20:40:50.908Z,74.30
2023-11-01T20:43:20.236Z,74.09
2023-11-01T20:45:49.999Z,73.59
2023-11-01T20:48:19.279Z,73.13
2023-11-01T20:50:50.470Z,73.08
2023-11-01T20:53:24.441Z,72.95
2023-11-01T20:55:54.582Z,72.79
2023-11-01T20:58:25.816Z,72.59
2023-11-01T21:00:58.178Z,72.78
2023-11-01T21:03:26.060Z,72.94
2023-11-01T21:05:57.743Z,72.74
2023-11-01T21:08:27.012Z,72.88
2023-11-01T21:10:56.018Z,72.71
2023-11-01T21:13:24.919Z,73.00
2023-11-01T21:15:55.714Z,73.08
2023-11-01T21:18:24.584Z,73.12
2023-11-01T21:20:54.094Z,72.99
2023-11-01T21:23:23.956Z,72.86
2023-11-01T21:25:52.858Z,72.78
2023-11-01T21:28:23.684Z,72.93
2023-11-01T21:30:52.561Z,72.99
2023-11-01T21:33:22.502Z,72.71
2023-11-01T21:35:51.849Z,72.61
2023-11-01T21:38:20.885Z,72.71
2023-11-01T21:40:50.705Z,72.98
2023-11-01T21:43:21.232Z,72.78
2023-11-01T21:45:51.627Z,72.99
2023-11-01T21:48:25.726Z,72.67
2023-11-01T21:51:03.308Z,72.69
2023-11-01T21:53:33.818Z,72.96
2023-11-01T21:56:02.894Z,73.00
2023-11-01T21:58:34.467Z,72.97
2023-11-01T22:01:07.286Z,72.93
2023-11-01T22:03:46.378Z,72.88
2023-11-01T22:06:29.794Z,72.82
2023-11-01T22:09:16.912Z,72.76
2023-11-01T22:11:49.917Z,72.58
2023-11-01T22:14:31.360Z,72.80
2023-11-01T22:17:01.645Z,72.80
2023-11-01T22:19:40.611Z,72.97
2023-11-01T22:22:23.080Z,73.09
2023-11-01T22:24:52.155Z,72.99
2023-11-01T22:27:21.012Z,73.12
2023-11-01T22:29:51.177Z,73.31
2023-11-01T22:32:24.385Z,73.28
2023-11-01T22:34:56.345Z,73.48
2023-11-01T22:37:27.953Z,73.55
2023-11-01T22:39:57.591Z,73.86
2023-11-01T22:42:31.874Z,73.99
2023-11-01T22:45:03.081Z,74.03
2023-11-01T22:47:34.035Z,74.19
2023-11-01T22:50:03.618Z,74.20
2023-11-01T22:52:33.637Z,74.23
2023-11-01T22:55:02.634Z,74.25
2023-11-01T22:57:33.892Z,74.19
2023-11-01T23:00:05.603Z,74.14
2023-11-01T23:02:35.501Z,74.18
2023-11-01T23:05:05.958Z,73.93
2023-11-01T23:07:34.804Z,73.79
2023-11-01T23:10:04.978Z,73.86
2023-11-01T23:12:34.303Z,74.02
2023-11-01T23:15:05.538Z,74.21
2023-11-01T23:17:34.328Z,74.13
2023-11-01T23:20:03.441Z,74.21
2023-11-01T23:22:32.828Z,74.25
2023-11-01T23:25:01.855Z,74.14
2023-11-01T23:27:31.843Z,74.24
2023-11-01T23:30:01.764Z,74.24
2023-11-01T23:32:32.085Z,74.04
2023-11-01T23:35:01.522Z,73.87
2023-11-01T23:37:38.393Z,73.98
2023-11-01T23:40:11.307Z,73.90
2023-11-01T23:42:40.254Z,73.86
2023-11-01T23:45:39.053Z,73.88
2023-11-01T23:48:08.069Z,73.86
2023-11-01T23:50:39.502Z,73.82
2023-11-01T23:53:09.800Z,73.68
2023-11-01T23:55:38.360Z,73.70
2023-11-01T23:58:08.545Z,73.84
